Time;durP1;ratioP1;P1;durP2;ratioP2;P2;SDS_P1;SDS_P2;PMS_P1;PMS_P2;Temp;Humidity;BMP_temperature;BMP_pressure;BME280_temperature;BME280_humidity;BME280_pressure;Samples;Min_cycle;Max_cycle;Signal;HPM_P1;HPM_P2
2023/12/23 00:01:59;;;;;;;3.30;1.27;;;;;;;8.76;100.00;97537.00;5081886;28;20238;-80
2023/12/23 00:04:26;;;;;;;3.87;0.70;;;;;;;8.75;100.00;97535.31;5081419;28;20584;-81
2023/12/23 00:06:52;;;;;;;5.80;0.97;;;;;;;8.75;100.00;97543.22;5081678;28;20204;-82
2023/12/23 00:09:19;;;;;;;1.27;0.90;;;;;;;8.75;100.00;97530.06;5082416;28;20212;-80
2023/12/23 00:11:45;;;;;;;1.67;0.80;;;;;;;8.76;100.00;97558.06;5081992;28;20235;-80
2023/12/23 00:14:12;;;;;;;2.13;0.90;;;;;;;8.69;100.00;97561.28;5081748;28;20855;-81
2023/12/23 00:16:38;;;;;;;4.37;1.93;;;;;;;8.62;100.00;97549.50;5081457;28;20212;-80
2023/12/23 00:19:06;;;;;;;2.27;1.30;;;;;;;8.58;100.00;97555.91;5081974;28;20209;-80
2023/12/23 00:21:33;;;;;;;4.80;1.00;;;;;;;8.54;100.00;97568.47;5080524;28;20247;-79
2023/12/23 00:23:59;;;;;;;3.00;1.03;;;;;;;8.60;100.00;97570.66;5081082;28;20217;-79
2023/12/23 00:26:26;;;;;;;2.33;0.90;;;;;;;8.64;100.00;97595.81;5080754;28;20213;-79
2023/12/23 00:28:52;;;;;;;2.60;1.20;;;;;;;8.65;100.00;97580.88;5080624;28;20208;-79
2023/12/23 00:31:19;;;;;;;1.90;1.00;;;;;;;8.61;100.00;97574.13;5080457;28;20572;-79
2023/12/23 00:33:47;;;;;;;5.03;1.87;;;;;;;8.57;100.00;97577.94;5082295;28;20271;-82
2023/12/23 00:36:15;;;;;;;2.80;1.00;;;;;;;8.58;100.00;97584.91;5081396;28;20212;-80
2023/12/23 00:38:42;;;;;;;3.70;1.03;;;;;;;8.54;100.00;97593.94;5081856;28;20555;-79
2023/12/23 00:41:08;;;;;;;2.43;1.33;;;;;;;8.47;100.00;97608.50;5081404;28;20234;-81
2023/12/23 00:43:35;;;;;;;2.13;0.80;;;;;;;8.42;100.00;97610.59;5081819;28;20212;-82
2023/12/23 00:46:02;;;;;;;1.27;0.90;;;;;;;8.39;100.00;97605.56;5081667;28;20210;-80
2023/12/23 00:48:28;;;;;;;2.50;1.20;;;;;;;8.27;100.00;97625.66;5081388;28;20207;-80
2023/12/23 00:50:55;;;;;;;1.83;1.20;;;;;;;8.22;100.00;97624.28;5082310;28;20207;-80
2023/12/23 00:53:25;;;;;;;4.40;1.07;;;;;;;8.16;100.00;97630.78;5082554;28;20207;-80
2023/12/23 00:55:52;;;;;;;3.40;1.03;;;;;;;8.10;100.00;97646.13;5080499;28;20212;-80
2023/12/23 00:58:18;;;;;;;4.27;1.37;;;;;;;8.06;100.00;97637.59;5080744;28;20215;-80
2023/12/23 01:00:45;;;;;;;5.07;1.40;;;;;;;8.03;100.00;97640.41;5079300;28;20203;-80
2023/12/23 01:03:11;;;;;;;1.47;0.80;;;;;;;8.04;100.00;97638.66;5080500;28;20286;-80
2023/12/23 01:05:38;;;;;;;1.50;1.17;;;;;;;8.02;100.00;97645.81;5079978;28;20245;-80
2023/12/23 01:08:05;;;;;;;2.70;1.27;;;;;;;8.06;100.00;97640.22;5080421;28;20222;-80
2023/12/23 01:10:33;;;;;;;2.47;0.80;;;;;;;8.10;100.00;97625.94;5080417;28;20204;-80
2023/12/23 01:12:59;;;;;;;3.53;1.07;;;;;;;8.18;100.00;97625.41;5080458;28;20230;-80
2023/12/23 01:15:26;;;;;;;4.83;1.00;;;;;;;8.15;100.00;97630.88;5079719;28;20214;-80
2023/12/23 01:17:52;;;;;;;2.73;0.87;;;;;;;8.23;100.00;97633.84;5079603;28;20217;-80
2023/12/23 01:20:19;;;;;;;3.57;1.13;;;;;;;8.26;100.00;97650.28;5079827;28;20208;-80
2023/12/23 01:22:45;;;;;;;4.97;1.17;;;;;;;8.28;100.00;97658.94;5079120;28;20247;-81
2023/12/23 01:25:12;;;;;;;2.30;0.90;;;;;;;8.32;100.00;97656.94;5079428;28;20219;-80
2023/12/23 01:27:40;;;;;;;3.37;0.90;;;;;;;8.27;100.00;97648.50;5077776;28;20708;-80
2023/12/23 01:30:07;;;;;;;2.43;0.90;;;;;;;8.31;100.00;97664.00;5080377;28;20241;-80
2023/12/23 01:32:34;;;;;;;1.90;0.90;;;;;;;8.32;100.00;97659.59;5079404;28;20223;-80
2023/12/23 01:35:00;;;;;;;1.10;0.80;;;;;;;8.27;100.00;97653.78;5079096;28;20214;-80
2023/12/23 01:37:27;;;;;;;2.87;1.03;;;;;;;8.30;100.00;97653.56;5081690;28;20226;-80
2023/12/23 01:39:53;;;;;;;2.40;0.87;;;;;;;8.27;100.00;97664.31;5080295;28;20314;-79
2023/12/23 01:42:20;;;;;;;2.03;0.70;;;;;;;8.23;100.00;97679.47;5081056;28;20235;-79
2023/12/23 01:44:47;;;;;;;2.00;0.83;;;;;;;8.25;100.00;97671.44;5080244;28;20207;-79
2023/12/23 01:47:15;;;;;;;3.50;1.13;;;;;;;8.25;100.00;97684.59;5079713;28;20213;-79
2023/12/23 01:49:42;;;;;;;4.27;1.40;;;;;;;8.23;100.00;97681.25;5087161;28;20212;-79
2023/12/23 01:52:09;;;;;;;2.60;1.00;;;;;;;8.20;100.00;97684.91;5088648;28;20230;-79
2023/12/23 01:54:35;;;;;;;3.13;1.27;;;;;;;8.17;100.00;97706.16;5080776;28;20208;-81
2023/12/23 01:57:02;;;;;;;1.90;0.90;;;;;;;8.23;100.00;97710.19;5081926;28;20216;-79
2023/12/23 01:59:28;;;;;;;3.33;1.40;;;;;;;8.21;100.00;97696.31;5081382;28;20216;-79
2023/12/23 02:01:58;;;;;;;3.47;1.37;;;;;;;8.24;100.00;97701.34;5083046;28;20227;-79
2023/12/23 02:04:25;;;;;;;2.43;0.90;;;;;;;8.31;100.00;97694.72;5083026;28;20213;-79
2023/12/23 02:06:51;;;;;;;7.43;1.10;;;;;;;8.33;100.00;97693.69;5082304;28;20208;-79
2023/12/23 02:09:18;;;;;;;6.10;1.20;;;;;;;8.32;100.00;97693.81;5083591;28;20207;-81
2023/12/23 02:11:55;;;;;;;5.40;1.53;;;;;;;8.30;100.00;97669.34;5083632;28;20230;-80
2023/12/23 02:14:29;;;;;;;4.23;1.23;;;;;;;8.29;100.00;97694.00;5080968;28;20207;-80
2023/12/23 02:16:57;;;;;;;2.43;1.13;;;;;;;8.32;100.00;97686.72;5080083;28;20231;-80
2023/12/23 02:19:23;;;;;;;1.77;1.10;;;;;;;8.30;100.00;97680.75;5078878;28;20215;-80
2023/12/23 02:21:51;;;;;;;7.13;1.53;;;;;;;8.31;100.00;97686.81;5077518;28;20236;-80
2023/12/23 02:24:18;;;;;;;3.50;1.10;;;;;;;8.33;100.00;97698.13;5078460;28;20211;-80
2023/12/23 02:26:49;;;;;;;3.73;1.27;;;;;;;8.33;100.00;97690.22;5081979;28;20203;-81
2023/12/23 02:29:17;;;;;;;3.50;1.10;;;;;;;8.34;100.00;97678.75;5082651;28;20213;-80
2023/12/23 02:31:45;;;;;;;6.77;1.30;;;;;;;8.30;100.00;97679.88;5082231;28;20232;-80
2023/12/23 02:34:13;;;;;;;4.40;1.30;;;;;;;8.26;100.00;97694.22;5082459;28;20214;-81
2023/12/23 02:36:39;;;;;;;2.43;1.13;;;;;;;8.18;100.00;97712.25;5081715;28;20222;-81
2023/12/23 02:39:07;;;;;;;4.63;1.50;;;;;;;8.12;100.00;97717.94;5082665;28;20225;-81
2023/12/23 02:41:33;;;;;;;4.50;1.20;;;;;;;8.10;100.00;97709.28;5082331;28;20228;-80
2023/12/23 02:44:00;;;;;;;7.47;1.20;;;;;;;8.08;100.00;97711.19;5082157;28;20232;-81
2023/12/23 02:46:26;;;;;;;2.97;1.20;;;;;;;8.07;100.00;97715.59;5082238;28;20273;-80
2023/12/23 02:48:53;;;;;;;3.70;1.40;;;;;;;8.09;100.00;97704.97;5081699;28;20597;-80
2023/12/23 02:51:19;;;;;;;3.33;1.13;;;;;;;8.10;100.00;97698.78;5081601;28;20238;-81
2023/12/23 02:53:46;;;;;;;2.50;1.57;;;;;;;8.15;100.00;97713.28;5083819;28;20585;-80
2023/12/23 02:56:14;;;;;;;2.47;1.20;;;;;;;8.13;100.00;97730.13;5084509;28;20235;-80
2023/12/23 02:58:40;;;;;;;2.63;1.13;;;;;;;8.17;100.00;97721.09;5084369;28;20208;-80
2023/12/23 03:01:07;;;;;;;3.90;1.03;;;;;;;8.18;100.00;97725.41;5084063;28;20238;-80
2023/12/23 03:03:34;;;;;;;2.47;1.20;;;;;;;8.22;100.00;97719.03;5084987;28;20235;-80
2023/12/23 03:06:00;;;;;;;3.33;1.40;;;;;;;8.21;100.00;97718.19;5083977;28;20207;-80
2023/12/23 03:08:29;;;;;;;6.37;1.40;;;;;;;8.21;100.00;97706.84;5084357;28;20217;-80
2023/12/23 03:10:55;;;;;;;3.73;1.73;;;;;;;8.18;100.00;97723.63;5082709;28;20798;-80
2023/12/23 03:13:23;;;;;;;4.77;1.37;;;;;;;8.20;100.00;97715.69;5083058;28;20659;-80
2023/12/23 03:15:49;;;;;;;1.70;1.30;;;;;;;8.22;100.00;97706.75;5083832;28;20212;-79
2023/12/23 03:18:16;;;;;;;4.00;1.30;;;;;;;8.23;100.00;97699.66;5084897;28;20218;-79
2023/12/23 03:20:42;;;;;;;3.70;1.00;;;;;;;8.23;100.00;97715.47;5083930;28;20458;-81
2023/12/23 03:23:09;;;;;;;4.60;1.53;;;;;;;8.24;100.00;97727.69;5084866;28;20732;-79
2023/12/23 03:25:35;;;;;;;4.13;1.30;;;;;;;8.24;100.00;97725.03;5083236;28;20571;-79
2023/12/23 03:28:01;;;;;;;6.20;1.47;;;;;;;8.24;100.00;97707.47;5084351;28;20208;-79
2023/12/23 03:30:32;;;;;;;3.23;1.47;;;;;;;8.21;100.00;97706.84;5084702;28;20211;-81
2023/12/23 03:33:00;;;;;;;2.50;1.00;;;;;;;8.23;100.00;97710.19;5084368;28;20231;-79
2023/12/23 03:35:27;;;;;;;3.97;0.97;;;;;;;8.22;100.00;97698.84;5083494;28;20207;-79
2023/12/23 03:37:53;;;;;;;2.93;1.10;;;;;;;8.27;100.00;97695.91;5083634;28;20208;-79
2023/12/23 03:40:20;;;;;;;3.60;1.10;;;;;;;8.25;100.00;97703.88;5083114;28;20214;-79
2023/12/23 03:42:49;;;;;;;2.87;1.20;;;;;;;8.27;100.00;97712.53;5083855;28;20242;-79
2023/12/23 03:45:16;;;;;;;4.23;0.90;;;;;;;8.26;100.00;97712.66;5083362;28;20222;-78
2023/12/23 03:47:44;;;;;;;4.60;1.20;;;;;;;8.29;100.00;97710.66;5079888;28;20215;-81
2023/12/23 03:50:11;;;;;;;1.67;1.10;;;;;;;8.29;100.00;97709.78;5083704;28;20690;-81
2023/12/23 03:52:37;;;;;;;3.53;1.13;;;;;;;8.26;100.00;97716.09;5082726;28;20228;-80
2023/12/23 03:55:05;;;;;;;3.03;1.27;;;;;;;8.30;100.00;97724.63;5082256;28;20677;-79
2023/12/23 03:57:31;;;;;;;2.53;1.20;;;;;;;8.26;100.00;97716.09;5082535;28;20203;-79
2023/12/23 03:59:58;;;;;;;2.37;0.90;;;;;;;8.32;100.00;97688.53;5081655;28;20203;-81
2023/12/23 04:02:24;;;;;;;2.60;1.03;;;;;;;8.33;100.00;97691.03;5081242;28;20236;-80
2023/12/23 04:04:52;;;;;;;4.07;1.30;;;;;;;8.32;100.00;97699.06;5081503;28;20214;-79
2023/12/23 04:07:18;;;;;;;4.93;1.27;;;;;;;8.28;100.00;97687.06;5081822;28;20204;-79
2023/12/23 04:09:45;;;;;;;2.23;1.37;;;;;;;8.26;100.00;97678.41;5081226;28;20210;-81
2023/12/23 04:12:12;;;;;;;3.43;1.33;;;;;;;8.25;100.00;97656.50;5081564;28;20253;-80
2023/12/23 04:14:40;;;;;;;5.50;1.30;;;;;;;8.28;100.00;97666.84;5081020;28;20211;-80
2023/12/23 04:17:06;;;;;;;2.77;0.97;;;;;;;8.26;100.00;97673.16;5081661;28;20227;-80
2023/12/23 04:19:33;;;;;;;5.63;1.53;;;;;;;8.22;100.00;97698.00;5080803;28;20219;-80
2023/12/23 04:22:01;;;;;;;4.13;1.20;;;;;;;8.21;100.00;97675.25;5079393;28;20236;-80
2023/12/23 04:24:27;;;;;;;2.53;1.10;;;;;;;8.20;100.00;97684.91;5081006;28;20635;-80
2023/12/23 04:26:54;;;;;;;4.63;1.07;;;;;;;8.20;100.00;97677.03;5081398;28;20223;-80
2023/12/23 04:29:20;;;;;;;3.37;1.30;;;;;;;8.20;100.00;97674.41;5081261;28;20212;-80
2023/12/23 04:31:47;;;;;;;4.53;1.30;;;;;;;8.26;100.00;97675.78;5080846;28;20250;-80
2023/12/23 04:34:13;;;;;;;2.90;1.10;;;;;;;8.24;100.00;97680.28;5081851;28;20220;-80
2023/12/23 04:36:40;;;;;;;2.50;0.80;;;;;;;8.24;100.00;97675.88;5081496;28;20207;-80
2023/12/23 04:39:08;;;;;;;3.07;1.00;;;;;;;8.24;100.00;97680.28;5080552;28;20210;-80
2023/12/23 04:41:34;;;;;;;3.30;1.20;;;;;;;8.29;100.00;97670.31;5081274;28;20228;-80
2023/12/23 04:44:02;;;;;;;4.90;1.20;;;;;;;8.31;100.00;97666.63;5081284;28;20235;-81
2023/12/23 04:46:29;;;;;;;3.13;0.90;;;;;;;8.30;100.00;97670.22;5080829;28;20282;-80
2023/12/23 04:48:56;;;;;;;0.87;0.60;;;;;;;8.30;100.00;97654.41;5081040;28;20216;-80
2023/12/23 04:51:22;;;;;;;3.63;0.90;;;;;;;8.34;100.00;97655.03;5080468;28;20238;-79
2023/12/23 04:53:49;;;;;;;2.30;0.87;;;;;;;8.35;100.00;97665.47;5081212;28;20208;-79
2023/12/23 04:56:17;;;;;;;1.57;1.00;;;;;;;8.36;100.00;97668.94;5081793;28;20211;-79
2023/12/23 04:58:43;;;;;;;2.60;0.80;;;;;;;8.33;100.00;97670.00;5081476;28;20208;-79
2023/12/23 05:01:10;;;;;;;2.53;0.63;;;;;;;8.31;100.00;97676.28;5080481;28;20236;-80
2023/12/23 05:03:36;;;;;;;0.90;0.70;;;;;;;8.31;100.00;97676.28;5080524;28;20232;-79
2023/12/23 05:06:03;;;;;;;2.00;0.83;;;;;;;8.30;100.00;97664.94;5079862;28;20587;-80
2023/12/23 05:08:29;;;;;;;4.20;0.87;;;;;;;8.27;100.00;97669.56;5080793;28;20261;-79
2023/12/23 05:10:56;;;;;;;1.03;0.73;;;;;;;8.26;100.00;97646.84;5080207;28;20208;-80
2023/12/23 05:13:24;;;;;;;2.07;0.87;;;;;;;8.28;100.00;97639.66;5080842;28;20211;-80
2023/12/23 05:15:50;;;;;;;3.70;1.00;;;;;;;8.27;100.00;97644.06;5079849;28;20205;-80
2023/12/23 05:18:17;;;;;;;1.27;0.63;;;;;;;8.29;100.00;97651.88;5080837;28;20679;-80
2023/12/23 05:20:43;;;;;;;1.23;0.77;;;;;;;8.28;100.00;97639.66;5079596;28;20209;-80
2023/12/23 05:23:10;;;;;;;0.87;0.67;;;;;;;8.29;100.00;97636.94;5079267;28;20703;-80
2023/12/23 05:25:36;;;;;;;1.27;0.67;;;;;;;8.30;100.00;97632.50;5079122;28;20675;-80
2023/12/23 05:28:03;;;;;;;0.70;0.63;;;;;;;8.36;100.00;97639.97;5080087;28;20611;-80
2023/12/23 05:30:31;;;;;;;0.90;0.60;;;;;;;8.34;100.00;97637.44;5080080;28;20219;-80
2023/12/23 05:32:57;;;;;;;0.83;0.63;;;;;;;8.36;100.00;97650.50;5079546;28;20266;-79
2023/12/23 05:35:24;;;;;;;1.73;0.60;;;;;;;8.36;100.00;97658.41;5079569;28;20570;-80
2023/12/23 05:37:51;;;;;;;1.20;0.70;;;;;;;8.34;100.00;97660.31;5079034;28;20579;-80
2023/12/23 05:40:17;;;;;;;1.07;0.60;;;;;;;8.36;100.00;97655.78;5078824;28;20223;-79
2023/12/23 05:42:44;;;;;;;0.40;0.40;;;;;;;8.36;100.00;97650.50;5078553;28;20227;-80
2023/12/23 05:45:11;;;;;;;3.43;0.60;;;;;;;8.36;100.00;97659.25;5079341;28;20217;-80
2023/12/23 05:47:39;;;;;;;0.50;0.50;;;;;;;8.36;100.00;97655.78;5079690;28;20215;-80
2023/12/23 05:50:07;;;;;;;1.07;0.60;;;;;;;8.34;100.00;97660.31;5079121;28;20219;-79
2023/12/23 05:52:33;;;;;;;1.60;0.60;;;;;;;8.34;100.00;97649.78;5080547;28;20238;-79
2023/12/23 05:55:00;;;;;;;0.67;0.40;;;;;;;8.34;100.00;97655.03;5079882;28;20209;-80
2023/12/23 05:57:26;;;;;;;3.03;0.83;;;;;;;8.37;100.00;97644.28;5080311;28;20208;-79
2023/12/23 05:59:53;;;;;;;1.00;0.50;;;;;;;8.43;100.00;97643.88;5079406;28;20212;-81
2023/12/23 06:02:19;;;;;;;0.30;0.30;;;;;;;8.44;100.00;97635.06;5079894;28;20255;-80
2023/12/23 06:04:47;;;;;;;0.57;0.57;;;;;;;8.42;100.00;97636.94;5080451;28;20238;-79
2023/12/23 06:07:14;;;;;;;1.17;0.47;;;;;;;8.43;100.00;97655.25;5080078;28;20204;-79
2023/12/23 06:09:41;;;;;;;1.23;0.40;;;;;;;8.41;100.00;97640.50;5079383;28;20211;-81
2023/12/23 06:12:08;;;;;;;0.50;0.50;;;;;;;8.40;100.00;97633.56;5079578;28;20232;-81
2023/12/23 06:14:36;;;;;;;0.60;0.50;;;;;;;8.36;100.00;97622.41;5078935;28;20204;-81
2023/12/23 06:17:02;;;;;;;0.70;0.37;;;;;;;8.39;100.00;97626.63;5078979;28;20773;-81
2023/12/23 06:19:29;;;;;;;0.53;0.53;;;;;;;8.43;100.00;97607.84;5079779;28;20695;-79
2023/12/23 06:21:57;;;;;;;0.43;0.30;;;;;;;8.48;100.00;97599.63;5079441;28;20601;-79
2023/12/23 06:24:23;;;;;;;0.53;0.50;;;;;;;8.47;100.00;97616.38;5080105;28;20235;-79
2023/12/23 06:26:50;;;;;;;0.73;0.50;;;;;;;8.46;100.00;97633.16;5085929;28;20215;-81
2023/12/23 06:29:16;;;;;;;0.77;0.50;;;;;;;8.44;100.00;97635.06;5086502;28;20701;-80
2023/12/23 06:31:42;;;;;;;0.57;0.43;;;;;;;8.42;100.00;97626.38;5084825;28;20241;-79
2023/12/23 06:34:09;;;;;;;0.30;0.30;;;;;;;8.43;100.00;97639.47;5082924;28;20210;-79
2023/12/23 06:36:35;;;;;;;0.47;0.40;;;;;;;8.41;100.00;97633.47;5083882;28;20222;-79
2023/12/23 06:39:03;;;;;;;0.30;0.30;;;;;;;8.42;100.00;97647.47;5084495;28;20214;-79
2023/12/23 06:41:30;;;;;;;0.83;0.30;;;;;;;8.39;100.00;97650.31;5086133;28;20231;-79
2023/12/23 06:43:56;;;;;;;0.47;0.40;;;;;;;8.40;100.00;97634.38;5087471;28;20235;-79
2023/12/23 06:46:23;;;;;;;0.67;0.30;;;;;;;8.45;100.00;97642.00;5086379;28;20233;-82
2023/12/23 06:48:52;;;;;;;0.37;0.37;;;;;;;8.42;100.00;97629.88;5087865;28;20219;-80
2023/12/23 06:51:18;;;;;;;0.40;0.40;;;;;;;8.40;100.00;97630.94;5086295;28;20711;-80
2023/12/23 06:53:45;;;;;;;0.40;0.40;;;;;;;8.40;100.00;97639.66;5086223;28;20206;-80
2023/12/23 06:56:13;;;;;;;0.30;0.30;;;;;;;8.39;100.00;97632.72;5085846;28;20215;-80
2023/12/23 06:58:40;;;;;;;0.50;0.40;;;;;;;8.42;100.00;97631.66;5085037;28;20223;-80
2023/12/23 07:01:06;;;;;;;0.60;0.60;;;;;;;8.39;100.00;97618.72;5084873;28;20633;-80
2023/12/23 07:03:32;;;;;;;0.77;0.43;;;;;;;8.40;100.00;97628.28;5085198;28;20224;-80
2023/12/23 07:05:59;;;;;;;0.60;0.40;;;;;;;8.40;100.00;97638.84;5086965;28;20230;-80
2023/12/23 07:08:25;;;;;;;0.50;0.50;;;;;;;8.40;100.00;97638.84;5085786;28;20223;-80
2023/12/23 07:10:52;;;;;;;1.47;0.50;;;;;;;8.35;100.00;97646.19;5085664;28;20212;-80
2023/12/23 07:13:20;;;;;;;1.37;0.40;;;;;;;8.35;100.00;97657.59;5086218;28;20209;-80
2023/12/23 07:15:47;;;;;;;1.17;0.40;;;;;;;8.31;100.00;97649.97;5086111;28;20315;-81
2023/12/23 07:18:14;;;;;;;0.33;0.33;;;;;;;8.34;100.00;97653.22;5086741;28;20208;-81
2023/12/23 07:20:42;;;;;;;1.03;0.37;;;;;;;8.30;100.00;97643.03;5087291;28;20288;-79
2023/12/23 07:23:08;;;;;;;0.30;0.30;;;;;;;8.32;100.00;97644.59;5085250;28;20227;-80
2023/12/23 07:25:35;;;;;;;1.73;0.40;;;;;;;8.32;100.00;97641.97;5084183;28;20600;-79
2023/12/23 07:28:01;;;;;;;1.60;0.50;;;;;;;8.34;100.00;97650.59;5085691;28;20558;-81
2023/12/23 07:30:29;;;;;;;0.40;0.40;;;;;;;8.32;100.00;97656.94;5086466;28;20208;-81
2023/12/23 07:32:56;;;;;;;2.53;0.40;;;;;;;8.34;100.00;97655.03;5086714;28;20228;-80
2023/12/23 07:35:22;;;;;;;0.30;0.30;;;;;;;8.34;100.00;97660.31;5084257;28;20208;-80
2023/12/23 07:37:50;;;;;;;0.33;0.33;;;;;;;8.40;100.00;97660.72;5080101;28;20200;-81
2023/12/23 07:40:17;;;;;;;0.87;0.40;;;;;;;8.36;100.00;97655.78;5078394;28;20303;-79
2023/12/23 07:42:42;;;;;;;0.30;0.30;;;;;;;8.39;100.00;97652.94;5080619;28;20227;-81
2023/12/23 07:45:11;;;;;;;0.47;0.30;;;;;;;8.40;100.00;97668.63;5079817;28;20604;-76
2023/12/23 07:47:39;;;;;;;0.20;0.20;;;;;;;8.43;100.00;97664.94;5079415;28;20213;-81
2023/12/23 07:50:06;;;;;;;0.30;0.30;;;;;;;8.42;100.00;97668.53;5084178;28;20238;-81
2023/12/23 07:52:33;;;;;;;0.30;0.30;;;;;;;8.42;100.00;97658.00;5083501;28;20238;-81
2023/12/23 07:54:59;;;;;;;0.30;0.30;;;;;;;8.43;100.00;97664.94;5082671;28;20206;-81
2023/12/23 07:57:26;;;;;;;0.77;0.50;;;;;;;8.41;100.00;97672.09;5082716;28;20207;-79
2023/12/23 07:59:52;;;;;;;0.30;0.30;;;;;;;8.40;100.00;97680.97;5082544;28;20211;-81
2023/12/23 08:02:19;;;;;;;0.30;0.30;;;;;;;8.42;100.00;97689.59;5081918;28;20239;-81
2023/12/23 08:04:47;;;;;;;1.03;0.40;;;;;;;8.45;100.00;97684.13;5081692;28;20238;-79
2023/12/23 08:07:14;;;;;;;0.63;0.40;;;;;;;8.42;100.00;97677.28;5081562;28;20218;-81
2023/12/23 08:09:40;;;;;;;0.30;0.30;;;;;;;8.43;100.00;97672.84;5082172;28;20230;-80
2023/12/23 08:12:08;;;;;;;0.30;0.30;;;;;;;8.44;100.00;97664.00;5081633;28;20255;-80
2023/12/23 08:14:35;;;;;;;1.50;0.40;;;;;;;8.45;100.00;97665.69;5082166;28;20262;-81
2023/12/23 08:17:01;;;;;;;0.20;0.20;;;;;;;8.44;100.00;97671.91;5081955;28;20587;-80
2023/12/23 08:19:28;;;;;;;1.33;0.50;;;;;;;8.47;100.00;97666.44;5082073;28;20208;-80
2023/12/23 08:21:55;;;;;;;0.60;0.40;;;;;;;8.53;100.00;97666.00;5081905;28;20237;-81
2023/12/23 08:24:22;;;;;;;1.00;0.47;;;;;;;8.52;100.00;97670.41;5082218;28;20607;-81
2023/12/23 08:26:49;;;;;;;0.30;0.30;;;;;;;8.54;100.00;97667.69;5082172;28;20236;-81
2023/12/23 08:29:16;;;;;;;0.67;0.30;;;;;;;8.56;100.00;97644.75;5081405;28;20314;-80
2023/12/23 08:31:43;;;;;;;0.33;0.20;;;;;;;8.57;100.00;97641.16;5082155;28;20236;-81
2023/12/23 08:34:10;;;;;;;0.53;0.40;;;;;;;8.56;100.00;97655.28;5081969;28;20208;-80
2023/12/23 08:36:37;;;;;;;1.47;0.40;;;;;;;8.59;100.00;97634.84;5080916;28;20216;-80
2023/12/23 08:39:05;;;;;;;1.80;0.33;;;;;;;8.62;100.00;97649.59;5081446;28;20675;-80
2023/12/23 08:41:31;;;;;;;0.90;0.40;;;;;;;8.61;100.00;97650.50;5080930;28;20229;-80
2023/12/23 08:43:58;;;;;;;1.03;0.40;;;;;;;8.60;100.00;97667.28;5081507;28;20204;-80
2023/12/23 08:46:24;;;;;;;0.50;0.30;;;;;;;8.66;100.00;97659.81;5075286;28;20208;-82
2023/12/23 08:48:51;;;;;;;0.77;0.40;;;;;;;8.91;100.00;97661.56;5075277;28;20218;-76
2023/12/23 08:51:17;;;;;;;0.30;0.30;;;;;;;8.92;98.16;97632.47;5079587;28;20232;-79
2023/12/23 08:53:44;;;;;;;0.20;0.20;;;;;;;8.83;97.53;97632.28;5081980;28;20214;-78
2023/12/23 08:56:12;;;;;;;0.50;0.30;;;;;;;8.78;97.89;97644.94;5081991;28;20215;-79
2023/12/23 08:58:38;;;;;;;0.40;0.30;;;;;;;8.77;98.71;97632.72;5082251;28;20209;-80
2023/12/23 09:01:05;;;;;;;0.77;0.33;;;;;;;8.78;98.39;97624.69;5081431;28;20348;-79
2023/12/23 09:03:31;;;;;;;0.30;0.30;;;;;;;8.81;97.75;97608.66;5078141;28;20215;-78
2023/12/23 09:05:58;;;;;;;2.20;0.40;;;;;;;8.82;97.35;97620.06;5081615;28;20700;-79
2023/12/23 09:08:25;;;;;;;0.47;0.20;;;;;;;8.85;96.71;97620.69;5082020;28;20577;-81
2023/12/23 09:10:52;;;;;;;0.27;0.27;;;;;;;8.84;96.27;97612.88;5080771;28;20208;-79
2023/12/23 09:13:19;;;;;;;0.20;0.20;;;;;;;8.87;95.96;97617.94;5081664;28;20230;-78
2023/12/23 09:15:46;;;;;;;0.40;0.40;;;;;;;8.83;96.79;97611.19;5080653;28;20205;-80
2023/12/23 09:18:12;;;;;;;0.20;0.20;;;;;;;8.81;97.18;97623.66;5079150;28;20210;-78
2023/12/23 09:20:39;;;;;;;0.30;0.30;;;;;;;8.80;97.30;97637.75;5080632;28;20231;-79
2023/12/23 09:23:05;;;;;;;0.20;0.20;;;;;;;8.81;96.68;97639.47;5081473;28;20228;-78
2023/12/23 09:25:32;;;;;;;0.20;0.20;;;;;;;8.82;96.90;97626.16;5081773;28;20232;-78
2023/12/23 09:27:58;;;;;;;0.93;0.30;;;;;;;8.79;97.60;97646.59;5081847;28;20230;-81
2023/12/23 09:30:27;;;;;;;0.30;0.30;;;;;;;9.00;97.03;97661.75;5077486;28;20219;-82
2023/12/23 09:32:54;;;;;;;0.57;0.43;;;;;;;8.93;95.79;97649.13;5079144;28;20714;-83
2023/12/23 09:35:20;;;;;;;0.30;0.30;;;;;;;9.00;97.00;97666.22;5075452;28;20212;-78
2023/12/23 09:37:47;;;;;;;0.30;0.30;;;;;;;8.93;96.60;97655.22;5075072;28;20204;-81
2023/12/23 09:40:14;;;;;;;0.50;0.25;;;;;;;8.94;95.38;97661.38;5077995;28;20441;-82
2023/12/23 09:42:41;;;;;;;0.30;0.30;;;;;;;8.91;95.37;97674.72;5079378;28;20729;-80
2023/12/23 09:45:08;;;;;;;0.30;0.30;;;;;;;8.87;96.52;97687.28;5080884;28;20323;-80
2023/12/23 09:47:36;;;;;;;0.20;0.20;;;;;;;8.91;95.93;97682.63;5081396;28;20930;-80
2023/12/23 09:50:02;;;;;;;0.30;0.30;;;;;;;8.89;96.74;97681.91;5081534;28;20217;-80
2023/12/23 09:52:30;;;;;;;0.20;0.20;;;;;;;8.88;96.28;97672.34;5080866;28;20302;-81
2023/12/23 09:54:59;;;;;;;0.30;0.20;;;;;;;8.89;96.21;97687.19;5081924;28;20206;-79
2023/12/23 09:57:26;;;;;;;0.23;0.23;;;;;;;8.90;94.97;97660.75;5082562;28;20249;-79
2023/12/23 09:59:54;;;;;;;0.30;0.30;;;;;;;8.93;94.07;97654.41;5081121;28;20208;-82
2023/12/23 10:02:20;;;;;;;0.20;0.20;;;;;;;8.91;94.79;97672.09;5081418;28;20248;-80
2023/12/23 10:04:48;;;;;;;0.20;0.20;;;;;;;8.96;94.35;97667.34;5082556;28;20225;-79
2023/12/23 10:07:15;;;;;;;0.20;0.20;;;;;;;8.97;94.10;97667.25;5081510;28;20712;-79
2023/12/23 10:09:41;;;;;;;0.20;0.20;;;;;;;8.96;94.44;97680.53;5081772;28;20219;-81
2023/12/23 10:12:08;;;;;;;0.30;0.30;;;;;;;8.96;94.62;97662.94;5081759;28;20258;-81
2023/12/23 10:14:35;;;;;;;0.27;0.27;;;;;;;8.95;93.77;97679.72;5082052;28;20209;-79
2023/12/23 10:17:01;;;;;;;0.27;0.27;;;;;;;8.96;94.12;97670.00;5081862;28;20232;-79
2023/12/23 10:19:32;;;;;;;0.20;0.20;;;;;;;8.91;95.52;97674.72;5077224;28;20209;-82
2023/12/23 10:22:00;;;;;;;0.27;0.20;;;;;;;8.96;94.11;97654.19;5075400;28;20233;-81
2023/12/23 10:24:26;;;;;;;0.50;0.50;;;;;;;8.95;94.81;97674.44;5074181;28;20583;-81
2023/12/23 10:26:53;;;;;;;0.20;0.20;;;;;;;8.98;94.97;97652.28;5074127;28;20300;-80
2023/12/23 10:29:22;;;;;;;0.50;0.50;;;;;;;8.98;95.70;97657.53;5080287;28;20701;-82
2023/12/23 10:31:52;;;;;;;0.30;0.30;;;;;;;8.99;95.47;97669.78;5083266;28;20231;-82
2023/12/23 10:34:22;;;;;;;0.30;0.30;;;;;;;9.02;95.61;97661.66;5084561;28;20208;-82
2023/12/23 10:36:49;;;;;;;0.20;0.20;;;;;;;9.05;95.25;97658.81;5082486;28;20211;-81
2023/12/23 10:39:23;;;;;;;0.30;0.30;;;;;;;9.04;95.37;97678.19;5081928;28;20206;-82
2023/12/23 10:41:56;;;;;;;0.20;0.20;;;;;;;9.03;95.62;97681.78;5081628;28;20229;-82
2023/12/23 10:44:24;;;;;;;0.83;0.30;;;;;;;9.04;96.08;97683.47;5082008;28;20207;-81
2023/12/23 10:46:51;;;;;;;0.20;0.20;;;;;;;9.02;95.76;97672.19;5079159;28;20204;-80
2023/12/23 10:49:18;;;;;;;0.20;0.20;;;;;;;9.00;95.49;97676.75;5080134;28;20215;-80
2023/12/23 10:51:46;;;;;;;0.53;0.40;;;;;;;9.02;95.09;97673.06;5076260;28;20241;-81
2023/12/23 10:54:14;;;;;;;0.37;0.30;;;;;;;9.02;95.25;97683.59;5078334;28;20215;-81
2023/12/23 10:56:42;;;;;;;1.23;0.40;;;;;;;9.01;95.89;97691.59;5078251;28;20205;-81
2023/12/23 10:59:09;;;;;;;0.40;0.40;;;;;;;8.97;96.24;97687.50;5075821;28;20208;-80
2023/12/23 11:01:37;;;;;;;0.73;0.40;;;;;;;8.97;96.41;97671.66;5077167;28;20303;-81
2023/12/23 11:04:06;;;;;;;1.60;0.70;;;;;;;8.98;96.04;97670.72;5077115;28;20216;-83
2023/12/23 11:06:38;;;;;;;0.73;0.50;;;;;;;8.98;95.83;97678.63;5078314;28;20452;-81
2023/12/23 11:09:07;;;;;;;0.70;0.50;;;;;;;8.96;96.86;97681.38;5079666;28;20228;-80
2023/12/23 11:11:34;;;;;;;0.30;0.30;;;;;;;8.98;96.36;97679.47;5082485;28;20239;-80
2023/12/23 11:14:04;;;;;;;0.33;0.33;;;;;;;8.96;96.55;97670.84;5084810;28;20318;-80
2023/12/23 11:16:31;;;;;;;0.60;0.60;;;;;;;8.98;96.06;97678.63;5085607;28;20204;-80
2023/12/23 11:18:57;;;;;;;0.30;0.30;;;;;;;9.02;95.83;97685.38;5085351;28;20230;-80
2023/12/23 11:21:24;;;;;;;0.70;0.40;;;;;;;9.03;95.74;97681.78;5086207;28;20233;-79
2023/12/23 11:23:51;;;;;;;0.30;0.30;;;;;;;8.98;95.86;97690.03;5085306;28;20203;-80
2023/12/23 11:26:41;;;;;;;0.27;0.27;;;;;;;8.97;96.02;97693.63;5084621;28;20229;-79
2023/12/23 11:29:12;;;;;;;0.20;0.20;;;;;;;8.99;95.72;97693.50;5085141;28;20259;-79
2023/12/23 11:31:39;;;;;;;0.30;0.30;;;;;;;9.01;95.36;97688.97;5084042;28;20236;-79
2023/12/23 11:34:13;;;;;;;0.20;0.20;;;;;;;9.02;95.25;97680.97;5084878;28;20212;-79
2023/12/23 11:36:41;;;;;;;0.30;0.30;;;;;;;9.08;93.93;97663.88;5082506;28;20199;-79